createdAt,value
2019-03-31T00:00:11.430Z,95260.37
2019-03-31T00:02:40.269Z,95259.05
2019-03-31T00:05:08.902Z,95255.16
2019-03-31T00:07:37.573Z,95251.81
2019-03-31T00:10:07.802Z,95252.00
2019-03-31T00:12:36.638Z,95249.87
2019-03-31T00:15:07.664Z,95247.66
2019-03-31T00:17:36.151Z,95241.75
2019-03-31T00:20:05.794Z,95240.13
2019-03-31T00:22:34.387Z,95240.46
2019-03-31T00:25:03.140Z,95235.09
2019-03-31T00:27:31.763Z,95236.86
2019-03-31T00:30:00.506Z,95234.40
2019-03-31T00:32:29.070Z,95236.08
2019-03-31T00:34:57.563Z,95231.39
2019-03-31T00:37:26.473Z,95230.42
2019-03-31T00:39:55.102Z,95232.08
2019-03-31T00:42:23.602Z,95224.84
2019-03-31T00:44:52.093Z,95223.52
2019-03-31T00:47:21.028Z,95219.70
2019-03-31T00:49:50.107Z,95214.70
2019-03-31T00:52:18.602Z,95217.34
2019-03-31T00:54:47.104Z,95212.69
2019-03-31T00:57:15.920Z,95213.27
2019-03-31T00:59:44.516Z,95210.11
2019-03-31T01:02:18.095Z,95214.55
2019-03-31T01:04:47.035Z,95205.15
2019-03-31T01:07:16.041Z,95205.33
2019-03-31T01:09:45.051Z,95206.63
2019-03-31T01:12:13.787Z,95203.93
2019-03-31T01:14:43.697Z,95195.59
2019-03-31T01:17:12.703Z,95197.06
2019-03-31T01:19:41.511Z,95194.64
2019-03-31T01:22:10.257Z,95197.39
2019-03-31T01:24:38.962Z,95194.56
2019-03-31T01:27:10.095Z,95191.14
2019-03-31T01:29:38.590Z,95195.66
2019-03-31T01:32:07.221Z,95195.15
2019-03-31T01:34:35.981Z,95193.05
2019-03-31T01:37:05.409Z,95199.05
2019-03-31T01:39:34.725Z,95193.77
2019-03-31T01:42:03.675Z,95194.92
2019-03-31T01:44:32.245Z,95201.72
2019-03-31T01:47:00.886Z,95195.14
2019-03-31T01:49:31.628Z,95200.00
2019-03-31T01:52:00.259Z,95197.16
2019-03-31T01:54:28.832Z,95195.80
2019-03-31T01:56:57.578Z,95190.34
2019-03-31T01:59:26.217Z,95187.20
2019-03-31T02:02:04.131Z,95192.88
2019-03-31T02:04:25.173Z,95186.36
2019-03-31T02:06:53.819Z,95186.36
2019-03-31T02:09:22.508Z,95182.59
2019-03-31T02:11:51.103Z,95178.59
2019-03-31T02:14:19.677Z,95173.93
2019-03-31T02:16:48.243Z,95171.03
2019-03-31T02:19:16.987Z,95167.36
2019-03-31T02:21:45.489Z,95166.50
2019-03-31T02:24:14.056Z,95168.13
2019-03-31T02:26:42.742Z,95170.75
2019-03-31T02:29:11.370Z,95169.61
2019-03-31T02:31:39.887Z,95169.09
2019-03-31T02:34:08.483Z,95168.69
2019-03-31T02:36:37.105Z,95166.96
2019-03-31T02:39:06.105Z,95166.25
2019-03-31T02:41:34.705Z,95162.76
2019-03-31T02:44:03.345Z,95166.25
2019-03-31T02:46:32.047Z,95165.27
2019-03-31T02:49:00.732Z,95159.41
2019-03-31T02:51:29.591Z,95162.24
2019-03-31T02:53:58.275Z,95157.83
2019-03-31T02:56:28.055Z,95157.28
2019-03-31T02:58:58.682Z,95157.19
2019-03-31T03:01:29.647Z,95160.95
2019-03-31T03:04:00.538Z,95159.59
2019-03-31T03:06:31.143Z,95154.47
2019-03-31T03:09:01.614Z,95158.23
2019-03-31T03:11:31.623Z,95156.47
2019-03-31T03:14:03.553Z,95159.13
2019-03-31T03:16:32.057Z,95161.25
2019-03-31T03:19:00.709Z,95165.72
2019-03-31T03:21:29.337Z,95160.05
2019-03-31T03:23:57.995Z,95166.73
2019-03-31T03:26:26.657Z,95170.89
2019-03-31T03:28:55.308Z,95166.94
2019-03-31T03:31:24.028Z,95167.95
2019-03-31T03:33:52.697Z,95168.65
2019-03-31T03:36:21.217Z,95171.65
2019-03-31T03:38:49.836Z,95166.78
2019-03-31T03:41:18.431Z,95170.48
2019-03-31T03:43:55.728Z,95170.14
2019-03-31T03:46:17.421Z,95172.19
2019-03-31T03:48:46.358Z,95162.14
2019-03-31T03:51:15.056Z,95163.68
2019-03-31T03:53:43.546Z,95157.30
2019-03-31T03:56:12.221Z,95160.67
2019-03-31T03:58:40.842Z,95157.31
2019-03-31T04:01:13.714Z,95154.72
2019-03-31T04:03:42.303Z,95160.52
2019-03-31T04:06:10.938Z,95167.80
2019-03-31T04:08:39.569Z,95170.44
2019-03-31T04:11:20.773Z,95165.55
2019-03-31T04:13:46.826Z,95166.74
2019-03-31T04:16:15.462Z,95164.03
2019-03-31T04:18:44.110Z,95158.23
2019-03-31T04:21:12.757Z,95158.78
2019-03-31T04:23:41.382Z,95156.28
2019-03-31T04:26:10.411Z,95159.22
2019-03-31T04:28:38.972Z,95147.63
2019-03-31T04:31:07.613Z,95150.05
2019-03-31T04:33:50.221Z,95151.05
2019-03-31T04:36:06.562Z,95155.45
2019-03-31T04:38:35.127Z,95150.69
2019-03-31T04:41:03.810Z,95154.94
2019-03-31T04:43:32.437Z,95154.33
2019-03-31T04:46:01.077Z,95154.16
2019-03-31T04:48:29.801Z,95150.80
2019-03-31T04:50:58.435Z,95145.19
2019-03-31T04:53:27.064Z,95154.05
2019-03-31T04:55:55.652Z,95158.05
2019-03-31T04:58:24.228Z,95158.41
2019-03-31T05:00:52.865Z,95159.45
2019-03-31T05:03:21.714Z,95159.89
2019-03-31T05:05:50.282Z,95154.41
2019-03-31T05:08:18.786Z,95155.95
2019-03-31T05:10:47.665Z,95161.44
2019-03-31T05:13:16.298Z,95154.46
2019-03-31T05:15:44.796Z,95148.11
2019-03-31T05:18:13.518Z,95156.45
2019-03-31T05:20:42.219Z,95154.37
2019-03-31T05:23:10.933Z,95151.72
2019-03-31T05:25:39.677Z,95156.62
2019-03-31T05:28:08.182Z,95156.03
2019-03-31T05:30:36.825Z,95158.12
2019-03-31T05:33:05.499Z,95154.08
2019-03-31T05:35:34.079Z,95147.45
2019-03-31T05:38:02.714Z,95144.16
2019-03-31T05:40:31.245Z,95148.00
2019-03-31T05:42:59.827Z,95145.88
2019-03-31T05:45:28.503Z,95134.00
2019-03-31T05:47:57.182Z,95131.56
2019-03-31T05:50:25.745Z,95131.81
2019-03-31T05:52:54.615Z,95124.61
2019-03-31T05:55:23.288Z,95128.38
2019-03-31T05:57:51.954Z,95119.12
2019-03-31T06:00:39.468Z,95120.94
2019-03-31T06:03:08.103Z,95130.53
2019-03-31T06:05:36.746Z,95120.44
2019-03-31T06:08:05.430Z,95119.70
2019-03-31T06:10:33.935Z,95126.22
2019-03-31T06:13:02.582Z,95127.95
2019-03-31T06:15:31.269Z,95130.31
2019-03-31T06:17:59.764Z,95133.69
2019-03-31T06:20:28.436Z,95129.91
2019-03-31T06:22:57.246Z,95123.63
2019-03-31T06:25:25.749Z,95124.12
2019-03-31T06:27:54.255Z,95123.46
2019-03-31T06:30:23.602Z,95119.42
2019-03-31T06:32:55.322Z,95115.95
2019-03-31T06:35:22.476Z,95114.80
2019-03-31T06:37:51.121Z,95118.20
2019-03-31T06:40:19.765Z,95110.17
2019-03-31T06:42:48.417Z,95109.09
2019-03-31T06:45:17.114Z,95103.92
2019-03-31T06:47:45.604Z,95110.83
2019-03-31T06:50:14.246Z,95106.31
2019-03-31T06:52:42.933Z,95102.27
2019-03-31T06:55:11.600Z,95110.34
2019-03-31T06:57:40.248Z,95113.36
2019-03-31T07:00:09.775Z,95111.86
2019-03-31T07:02:38.411Z,95109.72
2019-03-31T07:05:08.520Z,95111.88
2019-03-31T07:07:37.191Z,95116.75
2019-03-31T07:10:08.001Z,95105.18
2019-03-31T07:12:36.869Z,95103.45
2019-03-31T07:15:08.180Z,95107.97
2019-03-31T07:17:36.827Z,95104.91
2019-03-31T07:20:08.701Z,95098.20
2019-03-31T07:22:37.375Z,95106.48
2019-03-31T07:25:08.911Z,95100.05
2019-03-31T07:27:38.555Z,95103.64
2019-03-31T07:30:16.082Z,95083.75
2019-03-31T07:32:44.750Z,95102.40
2019-03-31T07:35:18.595Z,95101.62
2019-03-31T07:37:47.588Z,95113.81
2019-03-31T07:40:20.131Z,95105.08
2019-03-31T07:42:51.136Z,95102.99
2019-03-31T07:45:20.254Z,95099.41
2019-03-31T07:47:49.134Z,95103.69
2019-03-31T07:50:19.445Z,95091.20
2019-03-31T07:52:48.279Z,95084.53
2019-03-31T07:55:17.149Z,95093.99
2019-03-31T07:57:45.671Z,95093.78
2019-03-31T08:00:19.614Z,95085.67
2019-03-31T08:02:48.292Z,95081.56
2019-03-31T08:05:32.048Z,95080.09
2019-03-31T08:07:47.926Z,95087.99
2019-03-31T08:10:16.812Z,95090.56
2019-03-31T08:12:45.451Z,95077.67
2019-03-31T08:15:14.485Z,95068.61
2019-03-31T08:17:43.164Z,95078.71
2019-03-31T08:20:13.949Z,95073.42
2019-03-31T08:22:42.443Z,95066.17
2019-03-31T08:25:13.114Z,95069.17
2019-03-31T08:27:41.751Z,95064.83
2019-03-31T08:30:12.982Z,95061.06
2019-03-31T08:32:42.166Z,95059.67
2019-03-31T08:35:10.998Z,95049.35
2019-03-31T08:37:39.829Z,95049.84
2019-03-31T08:40:10.434Z,95057.47
2019-03-31T08:42:39.098Z,95046.17
2019-03-31T08:45:09.125Z,95042.45
2019-03-31T08:47:38.178Z,95030.38
2019-03-31T08:50:07.691Z,95040.89
2019-03-31T08:52:36.287Z,95029.24
2019-03-31T08:55:07.331Z,95033.95
2019-03-31T08:57:36.007Z,95032.83
2019-03-31T09:00:07.192Z,95020.14
2019-03-31T09:02:36.198Z,95019.72
2019-03-31T09:05:07.536Z,95015.26
2019-03-31T09:07:36.209Z,95006.98
2019-03-31T09:10:07.144Z,95010.48
2019-03-31T09:12:35.975Z,95014.48
2019-03-31T09:15:06.857Z,95004.80
2019-03-31T09:17:35.419Z,95006.73
2019-03-31T09:20:05.892Z,94998.67
2019-03-31T09:22:34.721Z,94991.47
2019-03-31T09:25:03.372Z,94994.53
2019-03-31T09:27:31.863Z,94994.94
2019-03-31T09:30:00.675Z,94995.96
2019-03-31T09:32:29.245Z,94984.85
2019-03-31T09:34:57.737Z,94992.41
2019-03-31T09:37:26.413Z,94982.70
2019-03-31T09:39:54.906Z,94973.65
2019-03-31T09:42:23.467Z,94972.75
2019-03-31T09:44:52.130Z,94968.06
2019-03-31T09:47:20.824Z,94964.72
2019-03-31T09:49:49.391Z,94951.51
2019-03-31T09:52:18.142Z,94958.33
2019-03-31T09:54:46.766Z,94955.87
2019-03-31T09:57:15.400Z,94948.64
2019-03-31T09:59:44.100Z,94952.16
2019-03-31T10:02:12.838Z,94947.73
2019-03-31T10:04:41.470Z,94945.27
2019-03-31T10:07:10.145Z,94936.98
2019-03-31T10:09:38.691Z,94938.23
2019-03-31T10:12:07.355Z,94933.35
2019-03-31T10:14:36.116Z,94927.90
2019-03-31T10:17:04.848Z,94931.15
2019-03-31T10:19:33.340Z,94925.67
2019-03-31T10:22:02.013Z,94922.69
2019-03-31T10:24:30.643Z,94921.17
2019-03-31T10:26:59.278Z,94926.94
2019-03-31T10:29:27.814Z,94926.73
2019-03-31T10:31:56.309Z,94914.49
2019-03-31T10:34:24.928Z,94909.53
2019-03-31T10:36:53.855Z,94904.52
2019-03-31T10:39:22.425Z,94904.95
2019-03-31T10:41:50.917Z,94899.06
2019-03-31T10:44:19.592Z,94895.94
2019-03-31T10:46:48.255Z,94897.83
2019-03-31T10:49:16.755Z,94895.30
2019-03-31T10:51:45.257Z,94897.94
2019-03-31T10:54:13.886Z,94898.20
2019-03-31T10:56:42.413Z,94899.33
2019-03-31T10:59:11.073Z,94889.13
2019-03-31T11:01:39.835Z,94886.99
2019-03-31T11:04:08.675Z,94887.63
2019-03-31T11:06:37.170Z,94888.39
2019-03-31T11:09:06.835Z,94881.03
2019-03-31T11:11:35.516Z,94880.16
2019-03-31T11:14:04.193Z,94875.15
2019-03-31T11:16:32.757Z,94875.01
2019-03-31T11:19:01.444Z,94867.47
2019-03-31T11:21:31.705Z,94863.94
2019-03-31T11:24:00.388Z,94857.48
2019-03-31T11:26:29.219Z,94852.59
2019-03-31T11:28:57.881Z,94849.21
2019-03-31T11:31:26.514Z,94851.36
2019-03-31T11:33:55.035Z,94856.28
2019-03-31T11:36:23.669Z,94834.88
2019-03-31T11:38:52.172Z,94844.70
2019-03-31T11:41:20.694Z,94841.54
2019-03-31T11:43:49.326Z,94840.65
2019-03-31T11:46:17.949Z,94830.33
2019-03-31T11:48:46.482Z,94826.70
2019-03-31T11:51:14.974Z,94822.91
2019-03-31T11:53:43.605Z,94821.91
2019-03-31T11:56:12.510Z,94819.38
2019-03-31T11:58:41.079Z,94807.03
2019-03-31T12:01:09.640Z,94806.92
2019-03-31T12:03:38.324Z,94803.34
2019-03-31T12:06:07.057Z,94807.03
2019-03-31T12:08:35.638Z,94812.70
2019-03-31T12:11:04.403Z,94807.77
2019-03-31T12:13:33.033Z,94800.73
2019-03-31T12:16:01.591Z,94792.91
2019-03-31T12:18:30.272Z,94798.58
2019-03-31T12:20:58.907Z,94794.95
2019-03-31T12:23:27.490Z,94801.84
2019-03-31T12:25:56.048Z,94795.55
2019-03-31T12:28:24.713Z,94800.98
2019-03-31T12:30:53.349Z,94779.48
2019-03-31T12:33:21.851Z,94794.57
2019-03-31T12:35:50.379Z,94776.05
2019-03-31T12:38:19.014Z,94776.67
2019-03-31T12:40:47.652Z,94773.53
2019-03-31T12:43:16.257Z,94789.77
2019-03-31T12:45:44.831Z,94778.16
2019-03-31T12:48:13.479Z,94770.56
2019-03-31T12:50:42.149Z,94775.70
2019-03-31T12:53:10.712Z,94773.37
2019-03-31T12:55:39.353Z,94768.59
2019-03-31T12:58:07.898Z,94769.19
2019-03-31T13:00:36.513Z,94764.03
2019-03-31T13:03:05.175Z,94756.70
2019-03-31T13:05:33.843Z,94761.48
2019-03-31T13:08:02.432Z,94754.38
2019-03-31T13:10:31.001Z,94752.77
2019-03-31T13:12:59.673Z,94745.34
2019-03-31T13:15:28.370Z,94737.96
2019-03-31T13:17:57.002Z,94753.92
2019-03-31T13:20:25.608Z,94739.98
2019-03-31T13:22:54.247Z,94730.94
2019-03-31T13:25:22.876Z,94741.23
2019-03-31T13:27:51.540Z,94742.36
2019-03-31T13:30:21.955Z,94723.22
2019-03-31T13:32:50.543Z,94729.20
2019-03-31T13:35:19.239Z,94719.33
2019-03-31T13:37:47.874Z,94717.41
2019-03-31T13:40:16.504Z,94721.87
2019-03-31T13:42:45.054Z,94714.62
2019-03-31T13:45:13.885Z,94720.30
2019-03-31T13:47:42.516Z,94701.85
2019-03-31T13:50:12.530Z,94718.56
2019-03-31T13:52:41.091Z,94728.30
2019-03-31T13:55:10.023Z,94706.93
2019-03-31T13:57:40.176Z,94708.33
2019-03-31T14:00:10.756Z,94702.83
2019-03-31T14:02:40.083Z,94701.70
2019-03-31T14:05:09.213Z,94713.16
2019-03-31T14:07:37.847Z,94698.45
2019-03-31T14:10:07.599Z,94701.48
2019-03-31T14:12:36.191Z,94692.78
2019-03-31T14:15:19.111Z,94690.52
2019-03-31T14:17:38.180Z,94685.45
2019-03-31T14:20:07.556Z,94690.84
2019-03-31T14:22:36.189Z,94677.97
2019-03-31T14:25:06.337Z,94677.69
2019-03-31T14:27:34.936Z,94676.80
2019-03-31T14:30:05.394Z,94682.47
2019-03-31T14:32:34.006Z,94672.30
2019-03-31T14:35:02.673Z,94684.81
2019-03-31T14:37:31.303Z,94685.48
2019-03-31T14:39:59.868Z,94685.85
2019-03-31T14:42:28.799Z,94694.28
2019-03-31T14:44:57.427Z,94693.55
2019-03-31T14:47:25.944Z,94689.48
2019-03-31T14:49:54.638Z,94674.42
2019-03-31T14:52:27.461Z,94672.91
2019-03-31T14:54:55.919Z,94672.86
2019-03-31T14:57:23.959Z,94677.80
2019-03-31T14:59:52.592Z,94681.33
2019-03-31T15:02:21.074Z,94673.16
2019-03-31T15:04:49.670Z,94664.30
2019-03-31T15:07:18.301Z,94679.20
2019-03-31T15:09:46.931Z,94671.25
2019-03-31T15:12:15.533Z,94670.44
2019-03-31T15:14:44.028Z,94677.27
2019-03-31T15:17:12.667Z,94664.96
2019-03-31T15:19:41.548Z,94685.57
2019-03-31T15:22:10.066Z,94670.60
2019-03-31T15:24:38.675Z,94674.89
2019-03-31T15:27:07.333Z,94681.72
2019-03-31T15:29:35.949Z,94682.59
2019-03-31T15:32:04.699Z,94678.97
2019-03-31T15:34:33.342Z,94676.05
2019-03-31T15:37:02.052Z,94669.00
2019-03-31T15:39:30.652Z,94685.27
2019-03-31T15:41:59.494Z,94683.25
2019-03-31T15:44:27.995Z,94683.51
2019-03-31T15:46:56.661Z,94685.27
2019-03-31T15:49:25.526Z,94675.58
2019-03-31T15:51:54.023Z,94685.39
2019-03-31T15:54:22.515Z,94682.48
2019-03-31T15:56:51.250Z,94684.02
2019-03-31T15:59:19.886Z,94680.75
2019-03-31T16:01:48.429Z,94683.86
2019-03-31T16:04:16.916Z,94697.80
2019-03-31T16:06:45.553Z,94711.63
2019-03-31T16:09:23.295Z,94694.77
2019-03-31T16:11:53.585Z,94701.66
2019-03-31T16:14:14.775Z,94705.67
2019-03-31T16:16:43.342Z,94697.36
2019-03-31T16:19:11.848Z,94698.61
2019-03-31T16:21:43.979Z,94701.34
2019-03-31T16:24:11.034Z,94703.70
2019-03-31T16:26:39.608Z,94695.30
2019-03-31T16:29:08.097Z,94700.30
2019-03-31T16:31:36.784Z,94709.45
2019-03-31T16:34:05.531Z,94687.66
2019-03-31T16:36:34.020Z,94699.71
2019-03-31T16:39:02.616Z,94699.42
2019-03-31T16:41:31.249Z,94700.52
2019-03-31T16:43:59.876Z,94696.83
2019-03-31T16:46:28.409Z,94698.67
2019-03-31T16:48:56.909Z,94695.48
2019-03-31T16:51:25.553Z,94698.61
2019-03-31T16:53:54.087Z,94706.45
2019-03-31T16:56:22.720Z,94704.41
2019-03-31T16:58:51.354Z,94704.73
2019-03-31T17:01:19.889Z,94691.70
2019-03-31T17:03:48.384Z,94709.07
2019-03-31T17:06:17.120Z,94713.27
2019-03-31T17:08:45.939Z,94719.41
2019-03-31T17:11:14.578Z,94721.86
2019-03-31T17:13:43.076Z,94726.53
2019-03-31T17:16:15.275Z,94732.27
2019-03-31T17:18:42.195Z,94734.97
2019-03-31T17:21:10.754Z,94734.11
2019-03-31T17:23:39.376Z,94738.33
2019-03-31T17:26:08.012Z,94743.19
2019-03-31T17:28:36.643Z,94739.38
2019-03-31T17:31:05.353Z,94745.48
2019-03-31T17:33:34.053Z,94744.10
2019-03-31T17:36:02.607Z,94745.77
2019-03-31T17:38:31.143Z,94749.17
2019-03-31T17:40:59.773Z,94750.31
2019-03-31T17:43:28.408Z,94750.27
2019-03-31T17:45:56.937Z,94755.42
2019-03-31T17:48:25.431Z,94757.22
2019-03-31T17:50:54.069Z,94765.15
2019-03-31T17:53:22.752Z,94760.88
2019-03-31T17:55:51.386Z,94760.67
2019-03-31T17:58:19.874Z,94763.79
2019-03-31T18:00:48.540Z,94759.87
2019-03-31T18:03:17.193Z,94769.57
2019-03-31T18:05:45.678Z,94773.41
2019-03-31T18:08:14.203Z,94772.73
2019-03-31T18:10:42.867Z,94774.94
2019-03-31T18:13:11.486Z,94776.64
2019-03-31T18:15:40.155Z,94781.32
2019-03-31T18:18:08.785Z,94773.94
2019-03-31T18:20:37.316Z,94777.77
2019-03-31T18:23:05.834Z,94782.92
2019-03-31T18:25:34.480Z,94782.04
2019-03-31T18:28:03.102Z,94782.09
2019-03-31T18:30:31.712Z,94784.84
2019-03-31T18:33:00.202Z,94785.75
2019-03-31T18:35:29.039Z,94786.37
2019-03-31T18:37:57.722Z,94791.11
2019-03-31T18:40:34.881Z,94794.53
2019-03-31T18:42:56.504Z,94793.56
2019-03-31T18:45:25.326Z,94797.27
2019-03-31T18:47:53.957Z,94795.48
2019-03-31T18:50:22.540Z,94796.91
2019-03-31T18:52:51.223Z,94795.87
2019-03-31T18:55:33.305Z,94801.16
2019-03-31T18:58:19.855Z,94800.64
2019-03-31T19:00:56.134Z,94794.38
2019-03-31T19:03:26.649Z,94794.16
2019-03-31T19:06:12.915Z,94789.30
2019-03-31T19:08:43.101Z,94786.70
2019-03-31T19:11:15.036Z,94781.70
2019-03-31T19:13:57.472Z,94778.16
2019-03-31T19:16:30.574Z,94783.19
2019-03-31T19:19:19.043Z,94789.30
2019-03-31T19:21:52.421Z,94787.50
2019-03-31T19:24:38.905Z,94780.75
2019-03-31T19:27:09.043Z,94784.61
2019-03-31T19:29:55.819Z,94785.64
2019-03-31T19:32:42.519Z,94788.30
2019-03-31T19:35:15.901Z,94791.14
2019-03-31T19:37:46.182Z,94784.47
2019-03-31T19:40:32.225Z,94786.38
2019-03-31T19:43:14.473Z,94792.08
2019-03-31T19:45:47.526Z,94795.34
2019-03-31T19:48:17.808Z,94797.52
2019-03-31T19:50:48.085Z,94799.07
2019-03-31T19:53:34.661Z,94796.11
2019-03-31T19:56:10.251Z,94794.66
2019-03-31T19:58:58.911Z,94795.02
2019-03-31T20:01:34.957Z,94799.02
2019-03-31T20:04:05.208Z,94799.38
2019-03-31T20:06:51.602Z,94801.20
2019-03-31T20:09:24.903Z,94799.70
2019-03-31T20:11:55.179Z,94810.23
2019-03-31T20:14:40.971Z,94804.61
2019-03-31T20:17:20.500Z,94807.67
2019-03-31T20:19:50.740Z,94813.60
2019-03-31T20:22:20.881Z,94809.69
2019-03-31T20:24:54.280Z,94809.85
2019-03-31T20:27:30.576Z,94807.27
2019-03-31T20:30:00.719Z,94803.33
2019-03-31T20:32:46.222Z,94804.25
2019-03-31T20:35:25.428Z,94801.82
2019-03-31T20:38:12.234Z,94799.08
2019-03-31T20:40:45.262Z,94806.39
2019-03-31T20:43:15.403Z,94804.54
2019-03-31T20:45:44.329Z,94795.59
2019-03-31T20:48:12.966Z,94798.93
2019-03-31T20:50:41.461Z,94793.91
2019-03-31T20:53:10.071Z,94799.83
2019-03-31T20:55:38.705Z,94796.48
2019-03-31T20:58:07.344Z,94790.40
2019-03-31T21:00:35.872Z,94794.34
2019-03-31T21:03:04.584Z,94790.39
2019-03-31T21:05:33.318Z,94794.34
2019-03-31T21:08:01.990Z,94791.29
2019-03-31T21:10:30.493Z,94796.48
2019-03-31T21:12:58.986Z,94794.82
2019-03-31T21:15:27.652Z,94799.68
2019-03-31T21:17:56.390Z,94796.65
2019-03-31T21:20:24.895Z,94792.83
2019-03-31T21:22:53.591Z,94802.08
2019-03-31T21:25:22.227Z,94797.53
2019-03-31T21:27:50.860Z,94797.66
2019-03-31T21:30:19.749Z,94793.69
2019-03-31T21:32:48.251Z,94799.48
2019-03-31T21:35:16.883Z,94800.41
2019-03-31T21:37:45.421Z,94795.25
2019-03-31T21:40:14.048Z,94797.23
2019-03-31T21:42:42.684Z,94799.68
2019-03-31T21:45:11.551Z,94793.59
2019-03-31T21:47:40.121Z,94794.17
2019-03-31T21:50:08.893Z,94800.27
2019-03-31T21:52:37.558Z,94801.56
2019-03-31T21:55:07.093Z,94805.16
2019-03-31T21:57:35.789Z,94800.45
2019-03-31T22:00:09.919Z,94802.37
2019-03-31T22:02:38.657Z,94804.03
2019-03-31T22:05:08.090Z,94804.91
2019-03-31T22:07:36.697Z,94795.30
2019-03-31T22:10:06.901Z,94798.77
2019-03-31T22:12:35.570Z,94798.42
2019-03-31T22:15:05.643Z,94791.56
2019-03-31T22:17:34.280Z,94790.80
2019-03-31T22:20:07.301Z,94786.17
2019-03-31T22:22:35.847Z,94793.96
2019-03-31T22:25:06.282Z,94785.77
2019-03-31T22:27:35.216Z,94785.27
2019-03-31T22:30:05.850Z,94783.58
2019-03-31T22:32:34.493Z,94785.41
2019-03-31T22:35:03.353Z,94781.34
2019-03-31T22:37:32.002Z,94781.54
2019-03-31T22:40:00.640Z,94778.45
2019-03-31T22:42:29.152Z,94779.02
2019-03-31T22:44:58.035Z,94776.09
2019-03-31T22:47:26.671Z,94770.77
2019-03-31T22:49:55.210Z,94770.63
2019-03-31T22:52:24.004Z,94773.63
2019-03-31T22:54:52.752Z,94778.75
2019-03-31T22:57:21.249Z,94783.70
2019-03-31T22:59:49.929Z,94781.23
2019-03-31T23:02:18.569Z,94777.52
2019-03-31T23:04:47.134Z,94779.48
2019-03-31T23:07:15.669Z,94782.73
2019-03-31T23:09:44.379Z,94776.08
2019-03-31T23:12:13.023Z,94776.00
2019-03-31T23:14:41.682Z,94781.53
2019-03-31T23:17:10.230Z,94783.13
2019-03-31T23:19:38.867Z,94779.30
2019-03-31T23:22:07.545Z,94778.95
2019-03-31T23:24:36.166Z,94776.61
2019-03-31T23:27:04.749Z,94772.03
2019-03-31T23:29:33.420Z,94772.69
2019-03-31T23:32:02.160Z,94770.37
2019-03-31T23:34:30.661Z,94765.61
2019-03-31T23:36:59.346Z,94762.23
2019-03-31T23:39:27.868Z,94761.84
2019-03-31T23:41:56.439Z,94754.27
2019-03-31T23:44:25.366Z,94759.11
2019-03-31T23:46:54.004Z,94757.45
2019-03-31T23:49:22.561Z,94747.80
2019-03-31T23:51:51.105Z,94748.75
2019-03-31T23:54:19.740Z,94747.98
2019-03-31T23:56:48.457Z,94740.34
2019-03-31T23:59:16.980Z,94744.38
